createdAt,value
2016-12-02T00:00:51.112Z,6.39
2016-12-02T00:02:05.101Z,6.47
2016-12-02T00:03:19.894Z,6.26
2016-12-02T00:04:34.005Z,6.29
2016-12-02T00:05:48.843Z,6.29
2016-12-02T00:07:03.019Z,6.28
2016-12-02T00:08:17.131Z,6.29
2016-12-02T00:09:31.147Z,6.32
2016-12-02T00:10:45.275Z,6.41
2016-12-02T00:11:59.605Z,6.47
2016-12-02T00:13:14.243Z,6.44
2016-12-02T00:14:28.404Z,6.41
2016-12-02T00:15:42.885Z,6.39
2016-12-02T00:16:57.312Z,6.41
2016-12-02T00:18:11.108Z,6.47
2016-12-02T00:19:25.567Z,6.44
2016-12-02T00:20:39.482Z,6.49
2016-12-02T00:21:53.590Z,6.43
2016-12-02T00:23:08.269Z,6.44
2016-12-02T00:24:22.149Z,6.43
2016-12-02T00:25:36.132Z,6.29
2016-12-02T00:26:50.339Z,6.26
2016-12-02T00:28:04.503Z,6.2
2016-12-02T00:29:18.777Z,6.28
2016-12-02T00:30:32.906Z,6.22
2016-12-02T00:31:47.056Z,6.15
2016-12-02T00:33:01.337Z,6.17
2016-12-02T00:34:15.914Z,6.19
2016-12-02T00:35:31.149Z,6.16
2016-12-02T00:36:59.708Z,6.17
2016-12-02T00:38:14.528Z,6.22
2016-12-02T00:39:29.451Z,6.28
2016-12-02T00:40:43.483Z,6.31
2016-12-02T00:41:57.459Z,6.22
2016-12-02T00:43:11.662Z,6.32
2016-12-02T00:44:25.760Z,6.22
2016-12-02T00:45:40.226Z,6.2
2016-12-02T00:46:54.145Z,6.28
2016-12-02T00:48:08.114Z,6.31
2016-12-02T00:49:22.275Z,6.26
2016-12-02T00:50:36.337Z,6.26
2016-12-02T00:51:50.898Z,6.29
2016-12-02T00:53:04.724Z,6.19
2016-12-02T00:54:18.568Z,6.2
2016-12-02T00:55:34.705Z,6.25
2016-12-02T00:56:48.692Z,6.17
2016-12-02T00:58:03.312Z,6.17
2016-12-02T00:59:17.776Z,6.22
2016-12-02T01:00:31.537Z,6.15
2016-12-02T01:01:45.485Z,6.05
2016-12-02T01:02:59.441Z,6.05
2016-12-02T01:04:13.402Z,5.99
2016-12-02T01:05:27.959Z,6.06
2016-12-02T01:06:42.302Z,6.07
2016-12-02T01:07:56.566Z,6.2
2016-12-02T01:09:10.471Z,6.13
2016-12-02T01:10:24.708Z,5.99
2016-12-02T01:11:38.720Z,6.06
2016-12-02T01:12:52.759Z,6.01
2016-12-02T01:14:06.832Z,6.02
2016-12-02T01:15:20.913Z,6.13
2016-12-02T01:16:35.587Z,6.07
2016-12-02T01:17:49.246Z,6.1
2016-12-02T01:19:03.611Z,6.13
2016-12-02T01:20:17.578Z,6.1
2016-12-02T01:21:31.486Z,6.1
2016-12-02T01:22:45.999Z,6.16
2016-12-02T01:23:59.766Z,6.22
2016-12-02T01:25:14.241Z,6.25
2016-12-02T01:26:28.159Z,6.16
2016-12-02T01:27:42.025Z,6.05
2016-12-02T01:28:56.532Z,6.05
2016-12-02T01:30:10.517Z,6.02
2016-12-02T01:31:24.818Z,6.02
2016-12-02T01:32:39.114Z,6.15
2016-12-02T01:33:53.156Z,6.13
2016-12-02T01:35:07.268Z,6.25
2016-12-02T01:36:21.344Z,6.1
2016-12-02T01:37:35.400Z,6.09
2016-12-02T01:38:49.766Z,6.07
2016-12-02T01:40:03.806Z,6.06
2016-12-02T01:41:18.118Z,6.12
2016-12-02T01:42:32.223Z,6.02
2016-12-02T01:43:46.029Z,6.01
2016-12-02T01:45:00.049Z,5.99
2016-12-02T01:46:14.063Z,6.05
2016-12-02T01:47:28.349Z,6.06
2016-12-02T01:48:42.180Z,6.17
2016-12-02T01:49:56.185Z,6.13
2016-12-02T01:51:10.193Z,6.2
2016-12-02T01:52:24.507Z,6.19
2016-12-02T01:53:38.791Z,6.15
2016-12-02T01:54:52.796Z,6.31
2016-12-02T01:56:06.839Z,6.25
2016-12-02T01:57:20.667Z,6.17
2016-12-02T01:58:35.210Z,6.12
2016-12-02T01:59:49.670Z,6.13
2016-12-02T02:01:03.553Z,6.01
2016-12-02T02:02:17.613Z,6.13
2016-12-02T02:03:31.421Z,6.13
2016-12-02T02:04:45.624Z,5.99
2016-12-02T02:05:59.689Z,6.05
2016-12-02T02:07:13.856Z,6.12
2016-12-02T02:08:27.764Z,6.05
2016-12-02T02:09:41.660Z,6.05
2016-12-02T02:10:55.481Z,6.02
2016-12-02T02:12:12.140Z,6.16
2016-12-02T02:13:25.988Z,5.99
2016-12-02T02:14:39.957Z,6.05
2016-12-02T02:15:53.865Z,6.02
2016-12-02T02:17:07.785Z,6.05
2016-12-02T02:18:22.046Z,6.06
2016-12-02T02:19:36.544Z,6.02
2016-12-02T02:20:50.482Z,6.05
2016-12-02T02:22:04.457Z,6.07
2016-12-02T02:23:18.414Z,6.07
2016-12-02T02:24:32.492Z,6.05
2016-12-02T02:25:46.858Z,6.02
2016-12-02T02:27:00.528Z,6.07
2016-12-02T02:28:14.460Z,6.05
2016-12-02T02:29:28.492Z,6.07
2016-12-02T02:30:42.731Z,6.05
2016-12-02T02:31:57.184Z,6.02
2016-12-02T02:33:11.130Z,6.09
2016-12-02T02:34:24.889Z,5.88
2016-12-02T02:35:38.640Z,5.84
2016-12-02T02:36:52.735Z,5.81
2016-12-02T02:38:04.373Z,5.92
2016-12-02T02:39:16.072Z,5.83
2016-12-02T02:40:27.383Z,5.94
2016-12-02T02:41:38.679Z,5.81
2016-12-02T02:42:50.258Z,5.88
2016-12-02T02:44:01.447Z,5.94
2016-12-02T02:45:13.078Z,5.87
2016-12-02T02:46:24.624Z,5.84
2016-12-02T02:47:36.019Z,5.88
2016-12-02T02:48:47.643Z,5.84
2016-12-02T02:49:58.828Z,5.87
2016-12-02T02:51:10.368Z,5.87
2016-12-02T02:52:21.676Z,5.84
2016-12-02T02:53:33.584Z,5.83
2016-12-02T02:54:45.430Z,5.73
2016-12-02T02:55:56.741Z,5.87
2016-12-02T02:57:08.124Z,5.9
2016-12-02T02:58:19.556Z,5.88
2016-12-02T02:59:30.976Z,5.91
2016-12-02T03:00:42.906Z,5.92
2016-12-02T03:01:54.466Z,5.87
2016-12-02T03:03:05.737Z,5.91
2016-12-02T03:04:17.275Z,5.92
2016-12-02T03:05:28.602Z,5.88
2016-12-02T03:06:40.315Z,5.92
2016-12-02T03:07:52.116Z,5.9
2016-12-02T03:09:03.545Z,5.88
2016-12-02T03:10:15.180Z,5.87
2016-12-02T03:11:41.479Z,5.87
2016-12-02T03:12:52.849Z,5.88
2016-12-02T03:14:04.035Z,5.95
2016-12-02T03:15:15.712Z,5.95
2016-12-02T03:16:28.057Z,5.97
2016-12-02T03:17:39.379Z,5.99
2016-12-02T03:18:51.285Z,6.07
2016-12-02T03:20:02.564Z,6.02
2016-12-02T03:21:13.761Z,6.05
2016-12-02T03:22:25.438Z,6.16
2016-12-02T03:23:36.824Z,6.16
2016-12-02T03:24:48.517Z,6.19
2016-12-02T03:26:00.194Z,6.22
2016-12-02T03:27:13.827Z,6.22
2016-12-02T03:28:25.556Z,6.32
2016-12-02T03:29:37.287Z,6.32
2016-12-02T03:30:48.942Z,6.28
2016-12-02T03:32:00.378Z,6.26
2016-12-02T03:33:12.556Z,6.29
2016-12-02T03:36:05.252Z,6.32
2016-12-02T03:37:16.970Z,6.31
2016-12-02T03:38:28.459Z,6.43
2016-12-02T03:39:40.131Z,6.41
2016-12-02T03:42:47.571Z,6.46
2016-12-02T03:43:58.930Z,6.52
2016-12-02T03:45:10.764Z,6.41
2016-12-02T03:46:22.295Z,6.34
2016-12-02T03:47:33.692Z,6.34
2016-12-02T03:48:45.159Z,6.31
2016-12-02T03:49:56.867Z,6.2
2016-12-02T03:51:08.694Z,6.25
2016-12-02T03:52:20.090Z,6.13
2016-12-02T03:53:31.615Z,6.25
2016-12-02T03:54:43.145Z,6.25
2016-12-02T03:55:55.345Z,6.22
2016-12-02T03:57:07.567Z,6.28
2016-12-02T03:58:19.172Z,6.26
2016-12-02T03:59:30.856Z,6.34
2016-12-02T04:00:42.201Z,6.35
2016-12-02T04:01:53.831Z,6.36
2016-12-02T04:03:05.710Z,6.32
2016-12-02T04:04:17.092Z,6.44
2016-12-02T04:05:28.724Z,6.44
2016-12-02T04:06:40.260Z,6.52
2016-12-02T04:07:52.095Z,6.5
2016-12-02T04:09:04.123Z,6.47
2016-12-02T04:10:15.570Z,6.47
2016-12-02T04:11:27.130Z,6.44
2016-12-02T04:12:53.394Z,6.59
2016-12-02T04:14:05.333Z,6.64
2016-12-02T04:15:17.120Z,6.64
2016-12-02T04:16:28.582Z,6.72
2016-12-02T04:17:39.920Z,6.77
2016-12-02T04:18:51.218Z,6.62
2016-12-02T04:20:02.963Z,6.77
2016-12-02T04:21:14.420Z,6.65
2016-12-02T04:22:26.455Z,6.68
2016-12-02T04:23:37.841Z,6.7
2016-12-02T04:24:49.479Z,6.65
2016-12-02T04:26:01.132Z,6.64
2016-12-02T04:27:12.728Z,6.64
2016-12-02T04:28:24.413Z,6.71
2016-12-02T04:29:35.981Z,6.68
2016-12-02T04:30:47.563Z,6.67
2016-12-02T04:31:59.298Z,6.75
2016-12-02T04:33:10.701Z,6.72
2016-12-02T04:34:22.252Z,6.71
2016-12-02T04:35:34.000Z,6.78
2016-12-02T04:36:45.496Z,6.8
2016-12-02T04:37:57.317Z,6.74
2016-12-02T04:39:08.928Z,6.72
2016-12-02T04:40:20.130Z,6.64
2016-12-02T04:41:31.828Z,6.67
2016-12-02T04:42:45.714Z,6.67
2016-12-02T04:43:57.155Z,6.65
2016-12-02T04:45:08.484Z,6.6
2016-12-02T04:46:19.768Z,6.52
2016-12-02T04:47:31.215Z,6.49
2016-12-02T04:48:42.786Z,6.57
2016-12-02T04:49:54.866Z,6.53
2016-12-02T04:51:06.406Z,6.6
2016-12-02T04:52:17.910Z,6.62
2016-12-02T04:53:29.152Z,6.68
2016-12-02T04:54:40.420Z,6.7
2016-12-02T04:55:52.221Z,6.64
2016-12-02T04:57:03.614Z,6.67
2016-12-02T04:58:15.444Z,6.72
2016-12-02T04:59:27.102Z,6.75
2016-12-02T05:00:38.485Z,6.72
2016-12-02T05:01:50.323Z,6.74
2016-12-02T05:03:01.815Z,6.71
2016-12-02T05:04:13.619Z,6.68
2016-12-02T05:05:24.973Z,6.74
2016-12-02T05:06:36.304Z,6.65
2016-12-02T05:07:48.159Z,6.71
2016-12-02T05:08:59.563Z,6.72
2016-12-02T05:10:11.098Z,6.68
2016-12-02T05:12:48.870Z,6.64
2016-12-02T05:14:00.749Z,6.71
2016-12-02T05:15:12.238Z,6.7
2016-12-02T05:16:23.664Z,6.64
2016-12-02T05:17:34.954Z,6.65
2016-12-02T05:18:46.574Z,6.72
2016-12-02T05:19:58.292Z,6.75
2016-12-02T05:21:10.034Z,6.8
2016-12-02T05:22:21.768Z,6.75
2016-12-02T05:23:33.183Z,6.75
2016-12-02T05:24:44.409Z,6.7
2016-12-02T05:25:55.956Z,7.32
2016-12-02T05:27:07.640Z,7.37
2016-12-02T05:28:19.024Z,7.43
2016-12-02T05:29:30.551Z,7.44
2016-12-02T05:30:42.006Z,7.33
2016-12-02T05:31:53.513Z,7.26
2016-12-02T05:33:05.426Z,7.08
2016-12-02T05:34:16.803Z,7.13
2016-12-02T05:35:28.540Z,7.19
2016-12-02T05:36:40.011Z,7.03
2016-12-02T05:37:51.773Z,7.05
2016-12-02T05:39:03.116Z,7.07
2016-12-02T05:40:14.730Z,7.04
2016-12-02T05:46:16.810Z,6.97
2016-12-02T05:47:28.454Z,7.1
2016-12-02T05:48:39.832Z,7.04
2016-12-02T05:49:51.280Z,7.07
2016-12-02T05:51:02.815Z,7
2016-12-02T05:52:14.047Z,7.14
2016-12-02T05:53:25.825Z,7.03
2016-12-02T05:54:37.859Z,7
2016-12-02T05:55:49.365Z,7
2016-12-02T05:57:00.646Z,7.01
2016-12-02T05:58:12.653Z,6.96
2016-12-02T05:59:26.448Z,7.07
2016-12-02T06:00:38.126Z,7
2016-12-02T06:01:49.552Z,6.97
2016-12-02T06:03:01.408Z,7.07
2016-12-02T06:04:13.273Z,6.95
2016-12-02T06:05:25.343Z,6.95
2016-12-02T06:06:36.746Z,7
2016-12-02T06:07:48.434Z,7.04
2016-12-02T06:08:59.634Z,7.04
2016-12-02T06:10:11.361Z,7.19
2016-12-02T06:11:23.271Z,7.08
2016-12-02T06:12:34.444Z,7.03
2016-12-02T06:13:45.934Z,7.04
2016-12-02T06:14:57.515Z,7.01
2016-12-02T06:16:09.313Z,7.03
2016-12-02T06:17:21.045Z,7.04
2016-12-02T06:18:32.581Z,7.13
2016-12-02T06:19:44.312Z,7.13
2016-12-02T06:20:55.926Z,7.01
2016-12-02T06:22:07.609Z,7.05
2016-12-02T06:23:19.521Z,7.14
2016-12-02T06:24:30.795Z,7.05
2016-12-02T06:25:42.089Z,6.95
2016-12-02T06:26:53.787Z,6.87
2016-12-02T06:28:05.289Z,7
2016-12-02T06:29:17.036Z,6.95
2016-12-02T06:30:28.458Z,7.01
2016-12-02T06:31:54.706Z,7
2016-12-02T06:33:06.495Z,7.03
2016-12-02T06:34:18.064Z,6.95
2016-12-02T06:35:29.859Z,7
2016-12-02T06:36:41.246Z,6.95
2016-12-02T06:37:52.584Z,7.03
2016-12-02T06:39:04.142Z,7.05
2016-12-02T06:40:15.819Z,7
2016-12-02T06:41:27.389Z,7
2016-12-02T06:42:38.667Z,6.97
2016-12-02T06:43:49.892Z,6.97
2016-12-02T06:45:01.451Z,6.93
2016-12-02T06:46:12.808Z,7.04
2016-12-02T06:47:24.913Z,7.03
2016-12-02T06:48:36.324Z,7.05
2016-12-02T06:49:47.527Z,7.13
2016-12-02T06:50:59.163Z,7.18
2016-12-02T06:52:10.559Z,7.18
2016-12-02T06:53:22.611Z,7.15
2016-12-02T06:54:34.012Z,7.26
2016-12-02T06:56:00.730Z,7.31
2016-12-02T06:57:12.190Z,7.41
2016-12-02T06:58:23.963Z,7.36
2016-12-02T06:59:35.966Z,7.32
2016-12-02T07:00:47.251Z,7.29
2016-12-02T07:01:58.996Z,7.31
2016-12-02T07:03:10.448Z,7.43
2016-12-02T07:04:23.420Z,7.48
2016-12-02T07:05:38.381Z,7.43
2016-12-02T07:06:49.974Z,7.53
2016-12-02T07:08:01.519Z,7.5
2016-12-02T07:09:13.217Z,7.61
2016-12-02T07:10:24.660Z,7.55
2016-12-02T07:11:36.644Z,7.51
2016-12-02T07:12:47.947Z,7.62
2016-12-02T07:14:01.600Z,7.55
2016-12-02T07:15:13.598Z,7.55
2016-12-02T07:16:25.307Z,7.7
2016-12-02T07:17:36.924Z,7.67
2016-12-02T07:18:48.693Z,7.7
2016-12-02T07:20:00.094Z,7.61
2016-12-02T07:21:12.290Z,7.61
2016-12-02T07:22:26.286Z,7.55
2016-12-02T07:23:38.101Z,7.61
2016-12-02T07:24:49.685Z,7.56
2016-12-02T07:26:01.290Z,7.62
2016-12-02T07:27:13.587Z,7.64
2016-12-02T07:28:25.342Z,7.66
2016-12-02T07:29:37.550Z,7.67
2016-12-02T07:30:49.259Z,7.72
2016-12-02T07:32:00.599Z,7.69
2016-12-02T07:33:12.184Z,7.61
2016-12-02T07:34:23.680Z,7.66
2016-12-02T07:35:35.570Z,7.67
2016-12-02T07:36:47.311Z,7.69
2016-12-02T07:37:58.656Z,7.69
2016-12-02T07:39:10.113Z,7.69
2016-12-02T07:40:21.446Z,7.69
2016-12-02T07:41:33.300Z,7.58
2016-12-02T07:42:44.633Z,7.58
2016-12-02T07:43:56.682Z,7.62
2016-12-02T07:45:08.449Z,7.69
2016-12-02T07:46:19.898Z,7.69
2016-12-02T07:47:31.491Z,7.83
2016-12-02T07:48:42.782Z,7.84
2016-12-02T07:49:54.525Z,7.77
2016-12-02T07:51:05.959Z,7.75
2016-12-02T07:52:17.657Z,7.85
2016-12-02T07:53:29.301Z,7.84
2016-12-02T07:54:40.632Z,7.8
2016-12-02T07:55:52.478Z,7.9
2016-12-02T07:57:04.184Z,7.84
2016-12-02T07:58:15.752Z,7.8
2016-12-02T07:59:27.375Z,7.77
2016-12-02T08:00:38.885Z,7.83
2016-12-02T08:01:50.202Z,7.81
2016-12-02T08:03:01.928Z,7.72
2016-12-02T08:04:13.198Z,7.77
2016-12-02T08:05:24.681Z,7.7
2016-12-02T08:06:36.348Z,7.7
2016-12-02T08:07:47.844Z,7.66
2016-12-02T08:08:59.740Z,7.77
2016-12-02T08:10:11.417Z,7.69
2016-12-02T08:11:23.033Z,7.69
2016-12-02T08:12:34.264Z,7.75
2016-12-02T08:13:45.759Z,7.62
2016-12-02T08:14:57.053Z,7.59
2016-12-02T08:16:08.494Z,7.56
2016-12-02T08:17:20.343Z,7.61
2016-12-02T08:18:31.808Z,7.5
2016-12-02T08:19:43.346Z,7.58
2016-12-02T08:20:55.030Z,7.46
2016-12-02T08:22:06.589Z,7.51
2016-12-02T08:23:32.901Z,7.53
2016-12-02T08:24:44.552Z,7.59
2016-12-02T08:25:56.501Z,7.48
2016-12-02T08:27:22.746Z,7.58
2016-12-02T08:28:36.572Z,7.58
2016-12-02T08:29:48.242Z,7.61
2016-12-02T08:30:59.858Z,7.58
2016-12-02T08:32:11.300Z,7.66
2016-12-02T08:33:22.955Z,7.64
2016-12-02T08:34:34.597Z,7.74
2016-12-02T08:35:45.879Z,7.72
2016-12-02T08:36:57.643Z,7.75
2016-12-02T08:38:09.339Z,7.77
2016-12-02T08:39:21.389Z,7.77
2016-12-02T08:40:33.498Z,7.77
2016-12-02T08:41:45.437Z,7.8
2016-12-02T08:42:56.624Z,7.81
2016-12-02T08:44:08.257Z,7.87
2016-12-02T08:45:19.723Z,7.78
2016-12-02T08:46:31.564Z,7.93
2016-12-02T08:47:43.306Z,7.93
2016-12-02T08:48:54.994Z,7.95
2016-12-02T08:50:06.698Z,7.96
2016-12-02T08:51:18.244Z,7.98
2016-12-02T08:52:30.324Z,8.01
2016-12-02T08:53:42.388Z,7.98
2016-12-02T08:54:53.790Z,7.91
2016-12-02T08:56:05.681Z,7.87
2016-12-02T08:57:17.730Z,7.95
2016-12-02T08:58:29.920Z,7.84
2016-12-02T08:59:42.439Z,7.84
2016-12-02T09:00:53.760Z,7.83
2016-12-02T09:02:05.241Z,7.93
2016-12-02T09:03:17.297Z,7.98
2016-12-02T09:04:28.793Z,7.84
2016-12-02T09:05:40.948Z,7.75
2016-12-02T09:06:52.743Z,7.64
2016-12-02T09:08:04.235Z,7.77
2016-12-02T09:09:15.913Z,7.78
2016-12-02T09:10:27.254Z,7.81
2016-12-02T09:11:39.426Z,7.96
2016-12-02T09:12:51.701Z,7.96
2016-12-02T09:14:03.716Z,7.91
2016-12-02T09:15:15.046Z,8.01
2016-12-02T09:16:26.531Z,7.96
2016-12-02T09:17:38.305Z,8.02
2016-12-02T09:18:49.888Z,8.01
2016-12-02T09:20:01.599Z,8.06
2016-12-02T09:21:13.406Z,8.06
2016-12-02T09:22:25.465Z,8.11
2016-12-02T09:23:36.914Z,8.14
2016-12-02T09:24:49.023Z,8.09
2016-12-02T09:26:01.167Z,8.13
2016-12-02T09:27:12.544Z,8.35
2016-12-02T09:28:23.888Z,8.28
2016-12-02T09:29:35.586Z,8.35
2016-12-02T09:30:47.046Z,8.36
2016-12-02T09:31:58.518Z,8.44
2016-12-02T09:33:10.066Z,8.35
2016-12-02T09:34:22.725Z,8.36
2016-12-02T09:35:34.455Z,8.53
2016-12-02T09:36:45.907Z,8.6
2016-12-02T09:37:57.226Z,8.6
2016-12-02T09:39:09.950Z,8.61
2016-12-02T09:40:21.520Z,8.77
2016-12-02T09:41:32.976Z,8.81
2016-12-02T09:42:46.934Z,8.71
2016-12-02T09:43:59.181Z,8.74
2016-12-02T09:45:25.456Z,8.82
2016-12-02T09:46:37.244Z,8.81
2016-12-02T09:47:49.059Z,8.84
2016-12-02T09:49:00.679Z,8.95
2016-12-02T09:50:12.516Z,8.86
2016-12-02T09:51:23.896Z,8.95
2016-12-02T09:52:35.078Z,8.89
2016-12-02T09:53:47.317Z,8.9
2016-12-02T09:54:58.955Z,8.89
2016-12-02T09:56:10.384Z,8.84
2016-12-02T09:57:22.381Z,8.9
2016-12-02T09:58:34.041Z,9.02
2016-12-02T09:59:45.782Z,9.13
2016-12-02T10:00:57.605Z,9.18
2016-12-02T10:02:09.010Z,9.11
2016-12-02T10:03:20.248Z,9.15
2016-12-02T10:05:59.006Z,9.3
2016-12-02T10:07:10.664Z,9.33
2016-12-02T10:08:22.204Z,9.52
2016-12-02T10:09:33.797Z,9.54
2016-12-02T10:10:45.417Z,9.55
2016-12-02T10:11:57.443Z,9.7
2016-12-02T10:13:08.902Z,9.62
2016-12-02T10:14:20.103Z,9.63
2016-12-02T10:15:31.861Z,9.8
2016-12-02T10:16:43.772Z,9.72
2016-12-02T10:17:58.042Z,9.77
2016-12-02T10:19:12.105Z,9.85
2016-12-02T10:20:26.263Z,9.97
2016-12-02T10:21:40.467Z,9.95
2016-12-02T10:22:54.687Z,9.97
2016-12-02T10:24:09.118Z,9.81
2016-12-02T10:25:22.931Z,9.81
2016-12-02T10:26:37.016Z,9.87
2016-12-02T10:27:50.900Z,9.95
2016-12-02T10:29:05.015Z,9.87
2016-12-02T10:30:19.190Z,9.95
2016-12-02T10:31:33.628Z,9.9
2016-12-02T10:32:47.976Z,9.82
2016-12-02T10:34:01.939Z,9.91
2016-12-02T10:35:15.988Z,9.74
2016-12-02T10:36:30.416Z,9.88
2016-12-02T10:37:44.089Z,9.85
2016-12-02T10:38:58.668Z,9.9
2016-12-02T10:40:13.074Z,9.8
2016-12-02T10:41:27.886Z,9.87
2016-12-02T10:42:42.674Z,9.74
2016-12-02T10:43:56.523Z,9.77
2016-12-02T10:45:10.896Z,9.84
2016-12-02T10:46:24.926Z,9.85
2016-12-02T10:47:38.949Z,9.94
2016-12-02T10:48:53.248Z,9.92
2016-12-02T10:50:07.453Z,9.94
2016-12-02T10:51:21.608Z,9.9
2016-12-02T10:52:35.604Z,9.92
2016-12-02T10:54:04.794Z,10.03
2016-12-02T10:55:19.017Z,9.99
2016-12-02T10:56:32.967Z,10
2016-12-02T10:57:47.066Z,10.02
2016-12-02T10:59:03.419Z,10.02
2016-12-02T11:00:17.399Z,9.97
2016-12-02T11:01:31.759Z,9.87
2016-12-02T11:02:45.906Z,9.84
2016-12-02T11:04:12.659Z,9.7
2016-12-02T11:05:27.165Z,9.67
2016-12-02T11:06:41.798Z,9.72
2016-12-02T11:07:55.794Z,9.82
2016-12-02T11:09:09.590Z,9.77
2016-12-02T11:10:23.718Z,9.85
2016-12-02T11:11:37.502Z,9.85
2016-12-02T11:12:51.854Z,9.88
2016-12-02T11:14:06.086Z,9.97
2016-12-02T11:15:19.944Z,10
2016-12-02T11:16:34.034Z,10.07
2016-12-02T11:17:47.883Z,9.92
2016-12-02T11:19:02.125Z,10.03
2016-12-02T11:20:16.366Z,10.05
2016-12-02T11:21:31.506Z,10.06
2016-12-02T11:22:46.015Z,10.07
2016-12-02T11:23:59.928Z,10.05
2016-12-02T11:25:14.089Z,10.06
2016-12-02T11:26:27.915Z,10.03
2016-12-02T11:27:42.451Z,10.12
2016-12-02T11:28:56.425Z,10.12
2016-12-02T11:30:10.283Z,10.21
2016-12-02T11:31:25.173Z,10.12
2016-12-02T11:32:39.108Z,10.18
2016-12-02T11:33:52.864Z,10.21
2016-12-02T11:35:06.651Z,10.09
2016-12-02T11:36:36.096Z,10.1
2016-12-02T11:37:51.272Z,10.2
2016-12-02T11:39:05.216Z,10.24
2016-12-02T11:40:19.536Z,10.25
2016-12-02T11:41:33.771Z,10.21
2016-12-02T11:42:48.253Z,10.28
2016-12-02T11:44:02.251Z,10.24
2016-12-02T11:45:16.372Z,10.27
2016-12-02T11:46:45.313Z,10.33
2016-12-02T11:47:59.521Z,10.28
2016-12-02T11:49:14.362Z,10.27
2016-12-02T11:50:28.520Z,10.27
2016-12-02T11:51:42.869Z,10.38
2016-12-02T11:52:57.440Z,10.33
2016-12-02T11:54:11.182Z,10.28
2016-12-02T11:55:25.868Z,10.43
2016-12-02T11:56:39.585Z,10.39
2016-12-02T11:57:53.591Z,10.46
2016-12-02T11:59:07.708Z,10.39
2016-12-02T12:00:22.693Z,10.3
2016-12-02T12:01:37.731Z,10.38
2016-12-02T12:02:51.874Z,10.3
2016-12-02T12:04:06.532Z,10.3
2016-12-02T12:05:20.436Z,10.27
2016-12-02T12:06:34.563Z,10.27
2016-12-02T12:07:49.193Z,10.33
2016-12-02T12:09:03.270Z,10.39
2016-12-02T12:10:17.369Z,10.43
2016-12-02T12:11:31.540Z,10.46
2016-12-02T12:12:45.546Z,10.53
2016-12-02T12:13:59.705Z,10.58
2016-12-02T12:15:14.188Z,10.51
2016-12-02T12:16:30.830Z,10.64
2016-12-02T12:17:44.963Z,10.61
2016-12-02T12:18:58.794Z,10.64
2016-12-02T12:20:12.886Z,10.65
2016-12-02T12:21:27.353Z,10.65
2016-12-02T12:22:42.642Z,10.62
2016-12-02T12:23:56.569Z,10.72
2016-12-02T12:25:10.346Z,10.65
2016-12-02T12:26:24.730Z,10.67
2016-12-02T12:27:39.158Z,10.69
2016-12-02T12:28:53.665Z,10.67
2016-12-02T12:30:07.498Z,10.67
2016-12-02T12:31:21.291Z,10.39
2016-12-02T12:32:35.484Z,10.17
2016-12-02T12:33:49.462Z,10.07
2016-12-02T12:35:03.707Z,9.99
2016-12-02T12:36:18.133Z,10
2016-12-02T12:37:31.922Z,9.91
2016-12-02T12:38:46.257Z,9.87
2016-12-02T12:40:00.759Z,9.84
2016-12-02T12:41:15.047Z,9.88
2016-12-02T12:42:43.758Z,10
2016-12-02T12:43:58.299Z,9.9
2016-12-02T12:45:12.425Z,9.99
2016-12-02T12:46:26.863Z,10
2016-12-02T12:47:41.417Z,9.91
2016-12-02T12:48:55.451Z,10.02
2016-12-02T12:50:09.696Z,10
2016-12-02T12:51:23.915Z,10.03
2016-12-02T12:52:38.284Z,9.99
2016-12-02T12:53:53.228Z,10.07
2016-12-02T12:55:07.294Z,9.97
2016-12-02T12:56:22.206Z,10.03
2016-12-02T12:57:52.179Z,9.91
2016-12-02T12:59:06.702Z,9.77
2016-12-02T13:00:21.021Z,9.85
2016-12-02T13:01:36.032Z,9.95
2016-12-02T13:02:50.571Z,10.02
2016-12-02T13:04:05.118Z,9.97
2016-12-02T13:05:19.318Z,10.02
2016-12-02T13:06:33.983Z,9.97
2016-12-02T13:07:48.506Z,10.05
2016-12-02T13:09:02.866Z,9.97
2016-12-02T13:10:16.988Z,10.03
2016-12-02T13:11:31.387Z,9.92
2016-12-02T13:12:45.453Z,9.94
2016-12-02T13:13:59.797Z,9.87
2016-12-02T13:15:13.679Z,9.9
2016-12-02T13:16:27.826Z,9.88
2016-12-02T13:17:41.542Z,9.87
2016-12-02T13:18:55.752Z,9.87
2016-12-02T13:20:10.380Z,9.9
2016-12-02T13:21:24.270Z,9.9
2016-12-02T13:22:38.526Z,9.85
2016-12-02T13:23:52.802Z,9.84
2016-12-02T13:25:21.721Z,9.85
2016-12-02T13:26:36.384Z,9.84
2016-12-02T13:27:50.529Z,9.88
2016-12-02T13:29:04.941Z,9.82
2016-12-02T13:30:18.958Z,9.77
2016-12-02T13:31:33.137Z,9.8
2016-12-02T13:32:47.850Z,9.72
2016-12-02T13:34:19.038Z,9.73
2016-12-02T13:35:33.203Z,9.69
2016-12-02T13:36:47.563Z,9.58
2016-12-02T13:38:02.186Z,9.58
2016-12-02T13:39:16.314Z,9.45
2016-12-02T13:40:30.420Z,9.33
2016-12-02T13:41:44.306Z,9.19
2016-12-02T13:42:58.675Z,8.99
2016-12-02T13:44:13.295Z,8.81
2016-12-02T13:45:27.202Z,8.77
2016-12-02T13:46:41.198Z,8.56
2016-12-02T13:47:55.340Z,8.59
2016-12-02T13:49:06.778Z,8.46
2016-12-02T13:50:18.711Z,8.34
2016-12-02T13:51:30.255Z,8.13
2016-12-02T13:52:42.120Z,8.09
2016-12-02T13:53:53.411Z,8.14
2016-12-02T13:55:05.466Z,8.06
2016-12-02T13:56:18.831Z,7.99
2016-12-02T13:57:33.118Z,7.96
2016-12-02T13:58:44.732Z,7.91
2016-12-02T13:59:56.408Z,7.83
2016-12-02T14:01:07.809Z,7.84
2016-12-02T14:02:20.307Z,7.84
2016-12-02T14:03:46.542Z,7.85
2016-12-02T14:04:58.126Z,7.95
2016-12-02T14:06:09.839Z,7.96
2016-12-02T14:07:21.941Z,7.95
2016-12-02T14:08:33.579Z,7.95
2016-12-02T14:09:45.468Z,7.98
2016-12-02T14:10:56.911Z,8.02
2016-12-02T14:12:08.283Z,7.96
2016-12-02T14:13:19.987Z,7.96
2016-12-02T14:14:32.202Z,7.91
2016-12-02T14:15:43.803Z,7.99
2016-12-02T14:16:55.317Z,7.95
2016-12-02T14:18:06.607Z,7.93
2016-12-02T14:19:18.220Z,7.95
2016-12-02T14:20:30.810Z,7.99
2016-12-02T14:21:42.867Z,8.03
2016-12-02T14:22:54.656Z,8.16
2016-12-02T14:24:06.426Z,8.02
2016-12-02T14:25:17.828Z,8.01
2016-12-02T14:26:29.631Z,8.02
2016-12-02T14:27:40.825Z,8.08
2016-12-02T14:28:52.638Z,8.06
2016-12-02T14:30:07.065Z,8.13
2016-12-02T14:31:20.767Z,8.2
2016-12-02T14:32:35.002Z,8.21
2016-12-02T14:33:48.903Z,8.16
2016-12-02T14:35:03.054Z,8.13
2016-12-02T14:36:16.982Z,8.13
2016-12-02T14:37:30.807Z,8.13
2016-12-02T14:38:45.170Z,8.06
2016-12-02T14:39:58.974Z,8.02
2016-12-02T14:41:13.868Z,8.05
2016-12-02T14:42:27.986Z,8.01
2016-12-02T14:43:41.887Z,8.06
2016-12-02T14:44:56.398Z,8.16
2016-12-02T14:46:10.378Z,8.06
2016-12-02T14:47:24.571Z,8.16
2016-12-02T14:48:39.105Z,8.11
2016-12-02T14:49:55.450Z,8.06
2016-12-02T14:51:10.545Z,8.09
2016-12-02T14:52:24.561Z,8.13
2016-12-02T14:53:38.760Z,8.05
2016-12-02T14:54:53.498Z,8.11
2016-12-02T14:56:07.500Z,7.98
2016-12-02T14:57:22.053Z,8.08
2016-12-02T14:58:36.003Z,8.03
2016-12-02T14:59:49.936Z,8.06
2016-12-02T15:01:04.218Z,8.05
2016-12-02T15:02:19.594Z,7.96
2016-12-02T15:03:33.772Z,8.03
2016-12-02T15:04:48.195Z,7.99
2016-12-02T15:06:02.388Z,8.06
2016-12-02T15:07:16.392Z,8.01
2016-12-02T15:08:31.045Z,8.01
2016-12-02T15:09:45.635Z,7.96
2016-12-02T15:11:00.167Z,7.96
2016-12-02T15:12:15.249Z,7.95
2016-12-02T15:13:30.041Z,7.91
2016-12-02T15:14:44.293Z,7.98
2016-12-02T15:15:59.120Z,7.98
2016-12-02T15:17:28.691Z,7.9
2016-12-02T15:18:58.393Z,7.85
2016-12-02T15:20:12.936Z,7.75
2016-12-02T15:21:33.430Z,7.77
2016-12-02T15:22:48.639Z,7.78
2016-12-02T15:24:03.232Z,7.74
2016-12-02T15:25:17.588Z,7.66
2016-12-02T15:26:32.558Z,7.75
2016-12-02T15:27:48.074Z,7.64
2016-12-02T15:30:32.139Z,7.77
2016-12-02T15:31:46.618Z,7.81
2016-12-02T15:33:01.331Z,7.8
2016-12-02T15:34:15.602Z,7.78
2016-12-02T15:35:30.008Z,7.8
2016-12-02T15:36:44.072Z,7.75
2016-12-02T15:37:59.333Z,7.75
2016-12-02T15:39:14.968Z,7.72
2016-12-02T15:40:30.279Z,7.78
2016-12-02T15:41:44.448Z,7.67
2016-12-02T15:42:59.925Z,7.67
2016-12-02T15:44:14.964Z,7.7
2016-12-02T15:45:29.498Z,7.69
2016-12-02T15:46:43.805Z,7.66
2016-12-02T15:47:58.189Z,7.61
2016-12-02T15:49:12.861Z,7.7
2016-12-02T15:50:27.019Z,7.61
2016-12-02T15:51:41.654Z,7.66
2016-12-02T15:52:55.992Z,7.62
2016-12-02T15:54:12.044Z,7.62
2016-12-02T15:55:26.046Z,7.64
2016-12-02T15:56:42.600Z,7.36
2016-12-02T15:57:57.927Z,7.5
2016-12-02T15:59:12.066Z,7.43
2016-12-02T16:00:26.102Z,7.5
2016-12-02T16:01:39.929Z,7.51
2016-12-02T16:02:54.412Z,7.59
2016-12-02T16:04:09.195Z,7.55
2016-12-02T16:05:23.739Z,7.59
2016-12-02T16:06:37.908Z,7.62
2016-12-02T16:07:54.432Z,7.61
2016-12-02T16:09:08.248Z,7.61
2016-12-02T16:10:22.630Z,7.61
2016-12-02T16:11:37.312Z,7.67
2016-12-02T16:12:51.110Z,7.64
2016-12-02T16:14:05.207Z,7.69
2016-12-02T16:15:19.333Z,7.72
2016-12-02T16:16:33.748Z,7.7
2016-12-02T16:17:47.547Z,7.67
2016-12-02T16:19:01.923Z,7.75
2016-12-02T16:20:15.794Z,7.77
2016-12-02T16:21:44.396Z,7.74
2016-12-02T16:22:59.913Z,7.81
2016-12-02T16:24:14.583Z,7.74
2016-12-02T16:25:28.444Z,7.64
2016-12-02T16:26:42.656Z,7.77
2016-12-02T16:27:56.661Z,7.81
2016-12-02T16:29:11.334Z,7.69
2016-12-02T16:30:25.651Z,7.74